createdAt,value
2022-11-29T00:00:15.748Z,6.40
2022-11-29T00:02:43.141Z,6.30
2022-11-29T00:05:11.629Z,6.30
2022-11-29T00:07:41.821Z,6.30
2022-11-29T00:10:09.845Z,6.20
2022-11-29T00:12:37.314Z,6.20
2022-11-29T00:15:05.049Z,6.20
2022-11-29T00:17:32.640Z,6.20
2022-11-29T00:20:00.285Z,6.20
2022-11-29T00:22:28.491Z,6.20
2022-11-29T00:24:55.810Z,6.10
2022-11-29T00:27:23.579Z,6.10
2022-11-29T00:29:51.239Z,6.10
2022-11-29T00:32:18.619Z,6.10
2022-11-29T00:34:46.248Z,6.20
2022-11-29T00:37:16.268Z,6.20
2022-11-29T00:39:43.835Z,6.10
2022-11-29T00:42:11.194Z,6.20
2022-11-29T00:44:38.753Z,6.30
2022-11-29T00:47:06.301Z,6.20
2022-11-29T00:49:33.713Z,6.20
2022-11-29T00:52:01.428Z,6.20
2022-11-29T00:54:28.920Z,6.20
2022-11-29T00:56:56.565Z,6.10
2022-11-29T00:59:23.872Z,6.20
2022-11-29T01:01:51.433Z,6.20
2022-11-29T01:04:19.425Z,6.20
2022-11-29T01:06:46.784Z,6.10
2022-11-29T01:09:17.381Z,6.20
2022-11-29T01:11:44.981Z,6.20
2022-11-29T01:14:12.948Z,6.20
2022-11-29T01:16:41.773Z,6.20
2022-11-29T01:19:12.422Z,6.30
2022-11-29T01:21:40.034Z,6.30
2022-11-29T01:24:08.242Z,6.30
2022-11-29T01:26:35.570Z,6.20
2022-11-29T01:29:03.343Z,6.20
2022-11-29T01:31:38.228Z,6.30
2022-11-29T01:34:07.113Z,6.30
2022-11-29T01:36:35.571Z,6.30
2022-11-29T01:39:05.173Z,6.30
2022-11-29T01:41:35.148Z,6.30
2022-11-29T01:44:28.571Z,6.30
2022-11-29T01:46:57.527Z,6.30
2022-11-29T01:49:28.345Z,6.30
2022-11-29T01:52:03.010Z,6.20
2022-11-29T01:54:32.031Z,6.30
2022-11-29T01:56:59.716Z,6.30
2022-11-29T01:59:29.757Z,6.30
2022-11-29T02:02:05.148Z,6.30
2022-11-29T02:04:36.072Z,6.30
2022-11-29T02:07:03.782Z,6.30
2022-11-29T02:09:32.390Z,6.30
2022-11-29T02:12:14.692Z,6.30
2022-11-29T02:15:15.830Z,6.30
2022-11-29T02:17:58.177Z,6.30
2022-11-29T02:20:54.096Z,6.30
2022-11-29T02:23:28.776Z,6.30
2022-11-29T02:26:18.191Z,6.30
2022-11-29T02:29:01.022Z,6.30
2022-11-29T02:32:06.102Z,6.40
2022-11-29T02:34:52.716Z,6.30
2022-11-29T02:37:29.083Z,6.20
2022-11-29T02:40:20.256Z,6.30
2022-11-29T02:43:02.442Z,6.30
2022-11-29T02:45:49.053Z,6.30
2022-11-29T02:48:31.220Z,6.30
2022-11-29T02:51:01.270Z,6.30
2022-11-29T02:53:39.782Z,6.30
2022-11-29T02:56:32.113Z,6.30
2022-11-29T02:59:22.315Z,6.30
2022-11-29T03:02:16.042Z,6.30
2022-11-29T03:05:18.327Z,6.30
2022-11-29T03:08:07.764Z,6.30
2022-11-29T03:11:03.146Z,6.30
2022-11-29T03:13:41.784Z,6.30
2022-11-29T03:16:28.611Z,6.30
2022-11-29T03:19:05.265Z,6.30
2022-11-29T03:21:48.900Z,6.40
2022-11-29T03:24:24.085Z,6.30
2022-11-29T03:27:17.830Z,6.20
2022-11-29T03:30:00.818Z,6.20
2022-11-29T03:32:37.086Z,6.30
2022-11-29T03:35:14.326Z,6.30
2022-11-29T03:37:55.442Z,6.20
2022-11-29T03:40:42.358Z,6.20
2022-11-29T03:43:20.181Z,6.20
2022-11-29T03:46:03.711Z,6.20
2022-11-29T03:48:40.007Z,6.30
2022-11-29T03:51:13.041Z,6.20
2022-11-29T03:54:02.006Z,6.20
2022-11-29T03:56:35.617Z,6.20
2022-11-29T03:59:22.461Z,6.20
2022-11-29T04:01:58.210Z,6.30
2022-11-29T04:05:04.286Z,6.30
2022-11-29T04:07:37.649Z,6.30
2022-11-29T04:10:39.139Z,6.30
2022-11-29T04:13:41.522Z,6.30
2022-11-29T04:16:38.341Z,6.40
2022-11-29T04:19:20.762Z,6.30
2022-11-29T04:22:25.946Z,6.30
2022-11-29T04:24:59.384Z,6.40
2022-11-29T04:27:31.226Z,6.40
2022-11-29T04:30:21.336Z,6.30
2022-11-29T04:33:03.944Z,6.40
2022-11-29T04:35:43.424Z,6.30
2022-11-29T04:38:37.855Z,6.40
2022-11-29T04:41:39.675Z,6.30
2022-11-29T04:44:25.435Z,6.30
2022-11-29T04:47:20.239Z,6.30
2022-11-29T04:50:05.573Z,6.30
2022-11-29T04:52:54.675Z,6.30
2022-11-29T04:55:46.081Z,6.30
2022-11-29T04:58:41.268Z,6.30
2022-11-29T05:01:30.533Z,6.40
2022-11-29T05:04:17.951Z,6.40
2022-11-29T05:07:09.851Z,6.30
2022-11-29T05:09:59.079Z,6.30
2022-11-29T05:12:45.006Z,6.40
2022-11-29T05:15:45.117Z,6.30
2022-11-29T05:18:50.070Z,6.30
2022-11-29T05:21:44.154Z,6.30
2022-11-29T05:24:23.069Z,6.30
2022-11-29T05:27:11.113Z,6.30
2022-11-29T05:29:55.617Z,6.30
2022-11-29T05:32:37.513Z,6.30
2022-11-29T05:35:26.228Z,6.40
2022-11-29T05:38:27.775Z,6.40
2022-11-29T05:41:32.855Z,6.40
2022-11-29T05:44:29.916Z,6.40
2022-11-29T05:47:00.956Z,6.40
2022-11-29T05:49:58.835Z,6.40
2022-11-29T05:52:39.910Z,6.40
2022-11-29T05:55:25.838Z,6.40
2022-11-29T05:58:08.021Z,6.50
2022-11-29T06:00:50.835Z,6.60
2022-11-29T06:03:40.475Z,6.70
2022-11-29T06:06:30.629Z,6.80
2022-11-29T06:09:11.448Z,6.80
2022-11-29T06:11:55.102Z,7.00
2022-11-29T06:14:57.623Z,7.00
2022-11-29T06:17:52.891Z,7.00
2022-11-29T06:20:45.765Z,7.10
2022-11-29T06:23:51.891Z,7.00
2022-11-29T06:26:29.469Z,7.20
2022-11-29T06:29:25.550Z,7.30
2022-11-29T06:32:21.970Z,7.30
2022-11-29T06:35:02.392Z,7.40
2022-11-29T06:37:43.114Z,7.50
2022-11-29T06:40:14.630Z,7.50
2022-11-29T06:42:42.778Z,7.50
2022-11-29T06:45:14.152Z,7.50
2022-11-29T06:47:52.274Z,7.60
2022-11-29T06:50:57.559Z,7.60
2022-11-29T06:53:39.981Z,7.60
2022-11-29T06:56:31.951Z,7.60
2022-11-29T06:59:07.584Z,7.70
2022-11-29T07:01:43.947Z,7.70
2022-11-29T07:04:35.344Z,7.70
2022-11-29T07:07:02.868Z,7.70
2022-11-29T07:09:34.336Z,7.70
2022-11-29T07:12:01.944Z,7.70
2022-11-29T07:14:36.712Z,7.70
2022-11-29T07:17:26.606Z,7.80
2022-11-29T07:20:37.472Z,7.80
2022-11-29T07:23:29.653Z,7.80
2022-11-29T07:26:09.863Z,7.90
2022-11-29T07:29:02.681Z,7.80
2022-11-29T07:31:46.964Z,7.90
2022-11-29T07:34:32.784Z,7.90
2022-11-29T07:37:13.409Z,8.00
2022-11-29T07:40:12.369Z,8.00
2022-11-29T07:42:52.572Z,8.00
2022-11-29T07:45:38.083Z,8.00
2022-11-29T07:48:07.240Z,8.10
2022-11-29T07:50:38.017Z,8.00
2022-11-29T07:53:05.601Z,8.10
2022-11-29T07:55:37.406Z,8.10
2022-11-29T07:58:04.845Z,8.10
2022-11-29T08:00:33.664Z,8.10
2022-11-29T08:03:01.092Z,8.20
2022-11-29T08:05:29.823Z,8.20
2022-11-29T08:08:02.101Z,8.20
2022-11-29T08:10:32.454Z,8.20
2022-11-29T08:13:02.448Z,8.20
2022-11-29T08:15:30.472Z,8.30
2022-11-29T08:17:57.942Z,8.30
2022-11-29T08:20:27.884Z,8.30
2022-11-29T08:22:57.527Z,8.40
2022-11-29T08:25:26.014Z,8.40
2022-11-29T08:28:01.737Z,8.40
2022-11-29T08:30:32.117Z,8.40
2022-11-29T08:33:03.488Z,8.50
2022-11-29T08:35:31.459Z,8.50
2022-11-29T08:38:01.559Z,8.60
2022-11-29T08:40:34.556Z,8.70
2022-11-29T08:43:02.095Z,8.70
2022-11-29T08:45:29.791Z,8.70
2022-11-29T08:47:57.316Z,8.70
2022-11-29T08:50:28.039Z,8.70
2022-11-29T08:53:14.947Z,8.80
2022-11-29T08:58:32.949Z,8.80
2022-11-29T09:04:04.325Z,8.80
2022-11-29T09:06:45.657Z,8.90
2022-11-29T09:09:14.725Z,8.90
2022-11-29T09:11:45.866Z,9.00
2022-11-29T09:14:17.951Z,9.00
2022-11-29T09:16:45.538Z,9.00
2022-11-29T09:19:14.383Z,9.00
2022-11-29T09:21:42.586Z,9.10
2022-11-29T09:24:10.909Z,9.10
2022-11-29T09:26:40.848Z,9.10
2022-11-29T09:29:10.574Z,9.20
2022-11-29T09:31:40.353Z,9.20
2022-11-29T09:34:10.596Z,9.30
2022-11-29T09:36:38.077Z,9.30
2022-11-29T09:39:10.028Z,9.30
2022-11-29T09:41:56.881Z,9.40
2022-11-29T09:44:44.595Z,9.50
2022-11-29T09:47:35.472Z,9.50
2022-11-29T09:50:09.088Z,9.60
2022-11-29T09:52:49.313Z,9.60
2022-11-29T09:55:37.792Z,9.60
2022-11-29T09:58:11.733Z,9.80
2022-11-29T10:00:50.824Z,9.80
2022-11-29T10:03:26.568Z,9.90
2022-11-29T10:05:58.852Z,9.90
2022-11-29T10:08:32.998Z,10.00
2022-11-29T10:11:35.409Z,10.00
2022-11-29T10:14:24.377Z,10.10
2022-11-29T10:16:54.647Z,10.10
2022-11-29T10:19:36.709Z,10.10
2022-11-29T10:22:24.461Z,10.20
2022-11-29T10:25:00.159Z,10.30
2022-11-29T10:27:29.711Z,10.20
2022-11-29T10:30:01.372Z,10.30
2022-11-29T10:32:32.710Z,10.20
2022-11-29T10:35:01.692Z,10.30
2022-11-29T10:37:33.060Z,10.20
2022-11-29T10:40:07.801Z,10.30
2022-11-29T10:42:55.051Z,10.30
2022-11-29T10:45:37.850Z,10.30
2022-11-29T10:48:17.368Z,10.40
2022-11-29T10:50:48.912Z,10.30
2022-11-29T10:53:19.874Z,10.30
2022-11-29T10:55:53.766Z,10.40
2022-11-29T10:58:28.207Z,10.50
2022-11-29T11:00:56.433Z,10.30
2022-11-29T11:03:53.499Z,10.30
2022-11-29T11:06:41.865Z,10.40
2022-11-29T11:09:28.095Z,10.50
2022-11-29T11:12:07.074Z,10.60
2022-11-29T11:14:39.059Z,10.50
2022-11-29T11:17:31.616Z,10.50
2022-11-29T11:20:02.149Z,10.50
2022-11-29T11:22:31.422Z,10.50
2022-11-29T11:25:20.892Z,10.50
2022-11-29T11:27:48.723Z,10.50
2022-11-29T11:30:25.524Z,10.50
2022-11-29T11:33:19.867Z,10.50
2022-11-29T11:36:19.641Z,10.60
2022-11-29T11:38:59.663Z,10.60
2022-11-29T11:41:50.680Z,10.70
2022-11-29T11:44:46.477Z,10.80
2022-11-29T11:47:24.504Z,10.90
2022-11-29T11:50:11.515Z,10.90
2022-11-29T11:52:52.523Z,10.90
2022-11-29T11:55:39.674Z,10.80
2022-11-29T11:58:13.221Z,10.90
2022-11-29T12:01:15.900Z,10.80
2022-11-29T12:04:16.526Z,10.90
2022-11-29T12:07:01.201Z,10.90
2022-11-29T12:09:28.857Z,10.80
2022-11-29T12:12:10.744Z,10.80
2022-11-29T12:15:05.812Z,10.80
2022-11-29T12:17:44.296Z,10.90
2022-11-29T12:20:21.548Z,10.80
2022-11-29T12:23:15.276Z,10.90
2022-11-29T12:26:13.634Z,10.80
2022-11-29T12:28:52.566Z,10.80
2022-11-29T12:31:47.485Z,10.80
2022-11-29T12:34:43.651Z,10.80
2022-11-29T12:37:23.707Z,10.70
2022-11-29T12:40:16.164Z,10.70
2022-11-29T12:42:57.670Z,10.70
2022-11-29T12:45:44.165Z,10.70
2022-11-29T12:48:46.304Z,11.00
2022-11-29T12:51:55.081Z,10.60
2022-11-29T12:54:35.881Z,10.60
2022-11-29T12:57:38.456Z,10.60
2022-11-29T13:00:11.432Z,10.60
2022-11-29T13:02:56.150Z,10.60
2022-11-29T13:05:42.633Z,10.60
2022-11-29T13:08:47.240Z,10.60
2022-11-29T13:11:38.786Z,10.60
2022-11-29T13:14:42.220Z,10.50
2022-11-29T13:17:20.525Z,10.50
2022-11-29T13:19:56.011Z,10.40
2022-11-29T13:22:43.259Z,10.40
2022-11-29T13:25:24.867Z,10.30
2022-11-29T13:28:06.498Z,10.30
2022-11-29T13:30:35.874Z,10.30
2022-11-29T13:33:46.630Z,10.30
2022-11-29T13:40:51.786Z,10.30
2022-11-29T13:43:54.997Z,10.20
2022-11-29T13:46:33.579Z,10.20
2022-11-29T13:49:01.054Z,10.30
2022-11-29T13:51:38.600Z,10.20
2022-11-29T13:54:25.080Z,10.20
2022-11-29T13:57:04.354Z,10.20
2022-11-29T13:59:34.075Z,10.20
2022-11-29T14:02:01.981Z,10.30
2022-11-29T14:08:42.521Z,10.30
2022-11-29T14:11:24.248Z,10.30
2022-11-29T14:13:58.396Z,10.30
2022-11-29T14:18:00.130Z,10.30
2022-11-29T14:20:28.610Z,10.30
2022-11-29T14:23:04.855Z,10.20
2022-11-29T14:26:02.654Z,10.20
2022-11-29T14:28:40.287Z,10.20
2022-11-29T14:31:10.494Z,10.30
2022-11-29T14:33:46.898Z,10.30
2022-11-29T14:36:38.430Z,10.30
2022-11-29T14:39:38.857Z,10.30
2022-11-29T14:42:16.074Z,10.30
2022-11-29T14:44:52.730Z,10.20
2022-11-29T14:47:38.901Z,10.50
2022-11-29T14:50:09.904Z,10.30
2022-11-29T14:52:50.841Z,10.10
2022-11-29T14:55:18.105Z,10.10
2022-11-29T14:57:51.510Z,10.10
2022-11-29T15:00:42.297Z,10.00
2022-11-29T15:07:32.909Z,10.00
2022-11-29T15:10:04.496Z,9.90
2022-11-29T15:12:37.524Z,9.90
2022-11-29T15:15:33.280Z,9.90
2022-11-29T15:18:10.894Z,9.80
2022-11-29T15:20:52.044Z,9.80
2022-11-29T15:23:21.779Z,9.70
2022-11-29T15:26:02.356Z,9.70
2022-11-29T15:28:30.253Z,9.60
2022-11-29T15:31:09.782Z,9.50
2022-11-29T15:33:40.962Z,9.50
2022-11-29T15:36:19.923Z,9.50
2022-11-29T15:38:51.347Z,9.40
2022-11-29T15:41:30.327Z,9.40
2022-11-29T15:44:06.487Z,9.40
2022-11-29T15:46:35.738Z,9.30
2022-11-29T15:49:38.659Z,9.20
2022-11-29T15:56:30.679Z,9.10
2022-11-29T15:59:05.885Z,8.90
2022-11-29T16:01:34.455Z,8.90
2022-11-29T16:04:02.194Z,8.90
2022-11-29T16:06:42.662Z,8.90
2022-11-29T16:09:15.455Z,8.90
2022-11-29T16:11:43.496Z,8.90
2022-11-29T16:14:23.867Z,8.90
2022-11-29T16:16:54.540Z,8.90
2022-11-29T16:19:38.077Z,8.90
2022-11-29T16:22:14.490Z,8.90
2022-11-29T16:25:01.090Z,8.90
2022-11-29T16:27:35.633Z,8.90
2022-11-29T16:30:04.520Z,8.90
2022-11-29T16:32:36.839Z,8.80
2022-11-29T16:35:20.777Z,8.80
2022-11-29T16:37:51.223Z,8.80
2022-11-29T16:40:30.265Z,8.80
2022-11-29T16:43:20.092Z,8.80
2022-11-29T16:45:47.490Z,8.80
2022-11-29T16:48:25.512Z,8.80
2022-11-29T16:51:12.596Z,8.80
2022-11-29T16:53:47.950Z,8.80
2022-11-29T16:56:17.750Z,8.90
2022-11-29T16:59:25.096Z,8.80
2022-11-29T17:01:37.159Z,8.90
2022-11-29T17:04:04.935Z,8.80
2022-11-29T17:06:32.323Z,8.80
2022-11-29T17:08:59.824Z,8.80
2022-11-29T17:11:27.474Z,8.90
2022-11-29T17:13:55.112Z,8.90
2022-11-29T17:16:24.312Z,8.80
2022-11-29T17:18:53.059Z,8.80
2022-11-29T17:21:29.387Z,8.80
2022-11-29T17:23:56.694Z,8.80
2022-11-29T17:26:35.381Z,8.80
2022-11-29T17:29:06.219Z,8.80
2022-11-29T17:34:39.274Z,8.80
2022-11-29T17:37:10.578Z,8.80
2022-11-29T17:39:46.999Z,8.80
2022-11-29T17:42:14.669Z,8.80
2022-11-29T17:44:42.578Z,8.80
2022-11-29T17:47:10.039Z,8.80
2022-11-29T17:49:37.705Z,8.80
2022-11-29T17:52:06.580Z,8.80
2022-11-29T17:54:34.206Z,8.80
2022-11-29T17:57:03.848Z,8.80
2022-11-29T17:59:31.183Z,8.80
2022-11-29T18:01:59.392Z,8.70
2022-11-29T18:04:26.654Z,8.70
2022-11-29T18:06:54.301Z,8.70
2022-11-29T18:09:21.576Z,8.70
2022-11-29T18:11:50.333Z,8.70
2022-11-29T18:14:21.086Z,8.70
2022-11-29T18:16:48.579Z,8.60
2022-11-29T18:19:18.547Z,8.70
2022-11-29T18:21:45.821Z,8.60
2022-11-29T18:24:13.255Z,8.60
2022-11-29T18:26:41.111Z,8.60
2022-11-29T18:29:08.736Z,8.50
2022-11-29T18:31:38.320Z,8.50
2022-11-29T18:34:09.574Z,8.50
2022-11-29T18:36:55.533Z,8.40
2022-11-29T18:39:25.203Z,8.40
2022-11-29T18:41:52.602Z,8.40
2022-11-29T18:44:21.922Z,8.30
2022-11-29T18:46:49.231Z,8.30
2022-11-29T18:49:18.125Z,8.20
2022-11-29T18:51:46.589Z,8.20
2022-11-29T18:54:18.996Z,8.10
2022-11-29T18:56:46.594Z,8.10
2022-11-29T18:59:19.150Z,8.10
2022-11-29T19:01:48.276Z,8.00
2022-11-29T19:04:22.022Z,8.00
2022-11-29T19:06:52.180Z,8.00
2022-11-29T19:09:21.376Z,7.90
2022-11-29T19:11:49.834Z,7.90
2022-11-29T19:14:17.863Z,7.90
2022-11-29T19:16:47.423Z,7.80
2022-11-29T19:19:14.688Z,7.80
2022-11-29T19:21:42.633Z,7.80
2022-11-29T19:24:15.295Z,7.80
2022-11-29T19:26:45.087Z,7.80
2022-11-29T19:29:13.927Z,7.80
2022-11-29T19:31:41.782Z,7.80
2022-11-29T19:34:09.356Z,7.90
2022-11-29T19:36:43.688Z,7.90
2022-11-29T19:39:15.815Z,7.90
2022-11-29T19:41:45.259Z,7.90
2022-11-29T19:44:13.294Z,7.80
2022-11-29T19:46:49.553Z,7.90
2022-11-29T19:49:16.896Z,7.90
2022-11-29T19:51:44.448Z,7.90
2022-11-29T19:54:12.146Z,7.80
2022-11-29T19:56:40.155Z,7.80
2022-11-29T19:59:08.806Z,7.80
2022-11-29T20:01:40.938Z,7.80
2022-11-29T20:04:13.217Z,7.60
2022-11-29T20:06:43.198Z,7.60
2022-11-29T20:09:13.592Z,7.60
2022-11-29T20:11:41.038Z,7.60
2022-11-29T20:14:13.646Z,7.60
2022-11-29T20:16:41.681Z,7.60
2022-11-29T20:19:14.778Z,7.60
2022-11-29T20:21:51.351Z,7.20
2022-11-29T20:24:19.624Z,7.40
2022-11-29T20:26:50.974Z,7.40
2022-11-29T20:29:30.417Z,7.30
2022-11-29T20:31:57.958Z,7.30
2022-11-29T20:37:30.252Z,7.10
2022-11-29T20:40:04.596Z,7.00
2022-11-29T20:42:43.897Z,7.00
2022-11-29T20:45:15.655Z,6.90
2022-11-29T20:47:55.014Z,6.90
2022-11-29T20:50:28.121Z,6.80
2022-11-29T20:53:16.628Z,6.70
2022-11-29T20:55:47.990Z,6.70
2022-11-29T20:58:16.317Z,6.60
2022-11-29T21:00:43.681Z,6.50
2022-11-29T21:03:18.589Z,6.50
2022-11-29T21:05:46.472Z,6.50
2022-11-29T21:08:14.500Z,6.40
2022-11-29T21:10:41.951Z,6.40
2022-11-29T21:13:11.783Z,6.40
2022-11-29T21:15:40.053Z,6.40
2022-11-29T21:18:07.683Z,6.50
2022-11-29T21:20:34.970Z,6.40
2022-11-29T21:23:48.218Z,6.30
2022-11-29T21:26:50.132Z,6.30
2022-11-29T21:29:22.712Z,6.30
2022-11-29T21:31:54.182Z,6.20
2022-11-29T21:34:22.042Z,6.20
2022-11-29T21:36:56.582Z,6.10
2022-11-29T21:39:33.870Z,6.10
2022-11-29T21:42:02.101Z,6.10
2022-11-29T21:44:29.105Z,6.10
2022-11-29T21:46:56.210Z,6.10
2022-11-29T21:49:23.408Z,6.10
2022-11-29T21:51:50.500Z,6.00
2022-11-29T21:54:17.578Z,6.00
2022-11-29T21:56:44.692Z,5.90
2022-11-29T21:59:14.779Z,5.90
2022-11-29T22:01:41.896Z,5.80
2022-11-29T22:04:09.165Z,5.90
2022-11-29T22:06:36.866Z,5.80
2022-11-29T22:09:04.920Z,5.80
2022-11-29T22:11:32.159Z,5.80
2022-11-29T22:14:19.315Z,5.80
2022-11-29T22:16:50.766Z,5.70
2022-11-29T22:19:25.281Z,5.70
2022-11-29T22:21:55.335Z,5.70
2022-11-29T22:24:24.482Z,5.50
2022-11-29T22:26:52.761Z,5.70
2022-11-29T22:29:19.993Z,5.50
2022-11-29T22:31:49.264Z,5.50
2022-11-29T22:34:16.808Z,5.40
2022-11-29T22:36:43.921Z,5.40
2022-11-29T22:39:11.257Z,5.40
2022-11-29T22:41:39.524Z,5.40
2022-11-29T22:44:07.537Z,5.40
2022-11-29T22:46:40.359Z,5.40
2022-11-29T22:49:07.667Z,5.40
2022-11-29T22:51:36.870Z,5.30
2022-11-29T22:54:09.735Z,5.40
2022-11-29T22:56:39.255Z,5.20
2022-11-29T22:59:08.870Z,5.10
2022-11-29T23:01:39.079Z,5.10
2022-11-29T23:04:10.148Z,5.10
2022-11-29T23:06:42.674Z,5.20
2022-11-29T23:09:21.387Z,5.10
2022-11-29T23:11:53.944Z,5.10
2022-11-29T23:14:22.216Z,5.10
2022-11-29T23:16:49.456Z,5.00
2022-11-29T23:19:17.249Z,4.90
2022-11-29T23:21:45.837Z,4.80
2022-11-29T23:24:14.370Z,4.70
2022-11-29T23:26:44.898Z,4.70
2022-11-29T23:29:14.880Z,4.70
2022-11-29T23:31:42.678Z,4.70
2022-11-29T23:34:09.834Z,4.70
2022-11-29T23:36:36.829Z,4.60
2022-11-29T23:39:05.376Z,4.70
2022-11-29T23:41:33.262Z,4.60
2022-11-29T23:44:00.350Z,4.50
2022-11-29T23:46:27.361Z,4.60
2022-11-29T23:48:54.486Z,4.50
2022-11-29T23:51:21.573Z,4.60
2022-11-29T23:53:52.988Z,4.60
2022-11-29T23:56:21.091Z,4.70
2022-11-29T23:58:48.446Z,4.70
